createdAt,value
2019-03-23T00:00:40.227Z,66.00
2019-03-23T00:05:31.122Z,66.80
2019-03-23T00:10:22.009Z,66.50
2019-03-23T00:15:12.904Z,65.70
2019-03-23T00:20:04.720Z,64.80
2019-03-23T00:24:55.597Z,64.80
2019-03-23T00:29:47.246Z,65.60
2019-03-23T00:34:38.139Z,65.60
2019-03-23T00:39:29.064Z,65.90
2019-03-23T00:44:19.959Z,66.20
2019-03-23T00:49:10.845Z,66.40
2019-03-23T00:54:01.734Z,65.20
2019-03-23T00:58:53.370Z,65.60
2019-03-23T01:03:45.126Z,65.50
2019-03-23T01:08:36.023Z,65.40
2019-03-23T01:13:28.361Z,66.00
2019-03-23T01:18:19.986Z,66.40
2019-03-23T01:23:10.872Z,66.20
2019-03-23T01:28:01.753Z,66.30
2019-03-23T01:32:53.384Z,64.90
2019-03-23T01:37:45.013Z,65.30
2019-03-23T01:42:36.665Z,65.70
2019-03-23T01:47:27.559Z,65.70
2019-03-23T01:52:18.448Z,66.00
2019-03-23T01:57:09.387Z,66.30
2019-03-23T02:02:00.301Z,66.50
2019-03-23T02:06:51.202Z,66.30
2019-03-23T02:11:42.097Z,65.10
2019-03-23T02:16:32.993Z,65.00
2019-03-23T02:21:23.893Z,65.60
2019-03-23T02:26:15.542Z,66.10
2019-03-23T02:31:07.561Z,66.40
2019-03-23T02:35:58.113Z,66.40
2019-03-23T02:40:49.015Z,66.80
2019-03-23T02:45:39.931Z,65.80
2019-03-23T02:50:31.577Z,65.00
2019-03-23T02:55:22.491Z,65.00
2019-03-23T03:00:13.402Z,65.40
2019-03-23T03:05:05.042Z,66.00
2019-03-23T03:09:56.694Z,66.10
2019-03-23T03:14:47.595Z,66.10
2019-03-23T03:19:39.243Z,65.50
2019-03-23T03:24:30.167Z,65.50
2019-03-23T03:29:21.075Z,64.70
2019-03-23T03:34:11.982Z,65.00
2019-03-23T03:39:03.620Z,65.80
2019-03-23T03:43:54.523Z,65.80
2019-03-23T03:48:46.179Z,66.50
2019-03-23T03:53:37.111Z,66.50
2019-03-23T03:58:28.055Z,66.80
2019-03-23T04:03:18.959Z,65.60
2019-03-23T04:08:11.705Z,64.90
2019-03-23T04:13:00.814Z,65.10
2019-03-23T04:17:51.725Z,65.60
2019-03-23T04:22:42.632Z,65.90
2019-03-23T04:27:33.552Z,66.10
2019-03-23T04:32:24.453Z,66.20
2019-03-23T04:37:15.365Z,66.60
2019-03-23T04:42:06.283Z,65.50
2019-03-23T04:46:57.189Z,64.60
2019-03-23T04:51:48.825Z,65.30
2019-03-23T04:56:40.469Z,65.70
2019-03-23T05:01:31.373Z,65.70
2019-03-23T05:06:23.014Z,66.00
2019-03-23T05:11:14.657Z,66.40
2019-03-23T05:16:06.293Z,65.70
2019-03-23T05:20:57.924Z,64.60
2019-03-23T05:25:49.565Z,64.80
2019-03-23T05:30:41.242Z,65.20
2019-03-23T05:35:32.135Z,65.20
2019-03-23T05:40:23.056Z,65.60
2019-03-23T05:45:13.962Z,65.90
2019-03-23T05:50:04.853Z,66.10
2019-03-23T05:54:55.761Z,66.40
2019-03-23T05:59:46.675Z,66.10
2019-03-23T06:04:37.581Z,65.00
2019-03-23T06:09:28.487Z,65.40
2019-03-23T06:14:19.378Z,65.20
2019-03-23T06:19:10.285Z,66.20
2019-03-23T06:24:01.937Z,67.00
2019-03-23T06:28:52.892Z,67.00
2019-03-23T06:33:43.804Z,67.20
2019-03-23T06:38:34.747Z,67.80
2019-03-23T06:43:25.653Z,66.00
2019-03-23T06:48:16.553Z,66.00
2019-03-23T06:53:07.467Z,65.70
2019-03-23T06:57:58.388Z,66.30
2019-03-23T07:02:49.281Z,66.90
2019-03-23T07:07:40.193Z,67.40
2019-03-23T07:12:31.847Z,68.60
2019-03-23T07:17:22.744Z,68.50
2019-03-23T07:22:14.385Z,66.40
2019-03-23T07:27:05.286Z,66.40
2019-03-23T07:32:05.407Z,67.30
2019-03-23T07:36:47.859Z,67.30
2019-03-23T07:41:38.767Z,67.90
2019-03-23T07:46:30.445Z,68.90
2019-03-23T07:51:21.350Z,68.90
2019-03-23T07:56:12.248Z,69.50
2019-03-23T08:01:03.890Z,68.50
2019-03-23T08:05:54.793Z,68.40
2019-03-23T08:10:46.437Z,68.90
2019-03-23T08:15:37.356Z,68.90
2019-03-23T08:20:28.265Z,69.30
2019-03-23T08:25:19.908Z,70.70
2019-03-23T08:30:11.555Z,71.10
2019-03-23T08:35:02.444Z,71.10
2019-03-23T08:39:54.103Z,68.80
2019-03-23T08:44:45.017Z,68.20
2019-03-23T08:49:36.253Z,68.20
2019-03-23T08:54:27.214Z,68.80
2019-03-23T08:59:18.242Z,69.70
2019-03-23T09:04:09.165Z,70.70
2019-03-23T09:09:00.114Z,70.70
2019-03-23T09:13:51.765Z,69.30
2019-03-23T09:18:42.714Z,69.30
2019-03-23T09:23:33.614Z,68.80
2019-03-23T09:28:24.531Z,68.80
2019-03-23T09:33:15.449Z,69.10
2019-03-23T09:38:06.358Z,70.00
2019-03-23T09:42:57.330Z,70.20
2019-03-23T09:47:48.349Z,70.10
2019-03-23T09:52:39.268Z,68.80
2019-03-23T09:57:30.181Z,68.00
2019-03-23T10:02:21.144Z,68.20
2019-03-23T10:07:12.789Z,69.30
2019-03-23T10:12:03.688Z,69.30
2019-03-23T10:16:55.341Z,69.10
2019-03-23T10:21:46.228Z,69.10
2019-03-23T10:26:37.139Z,68.20
2019-03-23T10:31:28.059Z,67.90
2019-03-23T10:36:18.983Z,68.20
2019-03-23T10:41:09.886Z,68.60
2019-03-23T10:46:00.785Z,69.00
2019-03-23T10:50:51.689Z,69.20
2019-03-23T10:55:42.630Z,67.90
2019-03-23T11:00:33.553Z,67.50
2019-03-23T11:05:24.452Z,67.20
2019-03-23T11:10:15.356Z,68.30
2019-03-23T11:15:06.313Z,68.60
2019-03-23T11:19:58.487Z,67.90
2019-03-23T11:24:48.907Z,66.70
2019-03-23T11:29:40.605Z,66.70
2019-03-23T11:34:31.566Z,66.50
2019-03-23T11:39:23.322Z,68.00
2019-03-23T11:44:14.224Z,67.90
2019-03-23T11:49:05.982Z,66.20
2019-03-23T11:53:56.926Z,66.20
2019-03-23T11:58:47.839Z,64.60
2019-03-23T12:03:38.753Z,65.20
2019-03-23T12:08:29.640Z,65.40
2019-03-23T12:13:21.277Z,65.50
2019-03-23T12:18:12.201Z,65.50
2019-03-23T12:23:03.101Z,63.60
2019-03-23T12:27:54.764Z,63.70
2019-03-23T12:32:45.757Z,63.70
2019-03-23T12:37:37.406Z,62.90
2019-03-23T12:42:28.318Z,62.90
2019-03-23T12:47:19.971Z,62.10
2019-03-23T12:52:10.921Z,62.10
2019-03-23T12:57:01.815Z,62.20
2019-03-23T13:01:52.734Z,62.00
2019-03-23T13:06:43.751Z,62.20
2019-03-23T13:11:35.521Z,62.00
2019-03-23T13:16:25.563Z,61.30
2019-03-23T13:21:17.211Z,60.80
2019-03-23T13:26:08.111Z,60.70
2019-03-23T13:30:59.744Z,61.10
2019-03-23T13:35:51.402Z,61.20
2019-03-23T13:40:42.308Z,61.20
2019-03-23T13:45:42.402Z,60.30
2019-03-23T13:50:24.852Z,60.30
2019-03-23T13:55:24.438Z,61.40
2019-03-23T14:00:15.337Z,61.40
2019-03-23T14:05:15.632Z,61.50
2019-03-23T14:09:57.161Z,60.60
2019-03-23T14:14:48.072Z,60.60
2019-03-23T14:19:38.976Z,60.80
2019-03-23T14:24:30.628Z,61.40
2019-03-23T14:29:21.602Z,61.40
2019-03-23T14:34:12.528Z,61.30
2019-03-23T14:39:03.451Z,60.60
2019-03-23T14:43:54.369Z,60.70
2019-03-23T14:48:46.014Z,61.90
2019-03-23T14:53:37.671Z,61.90
2019-03-23T14:58:28.568Z,61.90
2019-03-23T15:03:20.201Z,61.00
2019-03-23T15:08:12.129Z,61.00
2019-03-23T15:13:03.063Z,61.00
2019-03-23T15:17:54.718Z,61.30
2019-03-23T15:22:45.634Z,61.30
2019-03-23T15:27:37.291Z,61.50
2019-03-23T15:32:28.198Z,61.50
2019-03-23T15:37:19.097Z,61.20
2019-03-23T15:42:10.763Z,61.70
2019-03-23T15:47:01.721Z,61.70
2019-03-23T15:51:52.649Z,62.40
2019-03-23T15:56:43.554Z,61.90
2019-03-23T16:01:34.462Z,61.20
2019-03-23T16:06:25.368Z,61.70
2019-03-23T16:11:16.333Z,61.90
2019-03-23T16:16:08.054Z,63.60
2019-03-23T16:20:58.977Z,63.70
2019-03-23T16:25:49.886Z,62.10
2019-03-23T16:30:40.786Z,61.60
2019-03-23T16:35:31.760Z,62.00
2019-03-23T16:40:22.721Z,62.40
2019-03-23T16:45:13.643Z,62.10
2019-03-23T16:50:04.546Z,62.90
2019-03-23T16:54:55.447Z,62.30
2019-03-23T16:59:46.394Z,62.10
2019-03-23T17:04:37.343Z,62.30
2019-03-23T17:09:28.253Z,63.10
2019-03-23T17:14:19.918Z,63.50
2019-03-23T17:19:10.906Z,63.90
2019-03-23T17:24:01.926Z,61.90
2019-03-23T17:28:53.013Z,62.60
2019-03-23T17:33:45.713Z,63.10
2019-03-23T17:38:36.972Z,63.50
2019-03-23T17:43:28.017Z,63.90
2019-03-23T17:48:19.725Z,63.00
2019-03-23T17:53:11.499Z,62.80
2019-03-23T17:58:05.196Z,63.40
2019-03-23T18:03:02.916Z,63.40
2019-03-23T18:07:55.177Z,63.70
2019-03-23T18:12:46.376Z,64.10
2019-03-23T18:17:37.313Z,64.20
2019-03-23T18:22:46.033Z,63.10
2019-03-23T18:27:37.135Z,63.00
2019-03-23T18:32:28.121Z,63.20
2019-03-23T18:37:20.367Z,63.80
2019-03-23T18:42:12.037Z,64.60
2019-03-23T18:47:03.714Z,63.50
2019-03-23T18:51:55.639Z,63.50
2019-03-23T18:56:47.400Z,63.20
2019-03-23T19:01:39.128Z,63.70
2019-03-23T19:06:30.260Z,64.30
2019-03-23T19:11:21.411Z,64.50
2019-03-23T19:16:12.671Z,65.00
2019-03-23T19:21:04.503Z,63.40
2019-03-23T19:25:55.474Z,63.40
2019-03-23T19:30:46.560Z,63.60
2019-03-23T19:35:38.466Z,64.70
2019-03-23T19:40:29.613Z,64.60
2019-03-23T19:45:21.495Z,65.00
2019-03-23T19:50:12.717Z,64.50
2019-03-23T19:55:05.227Z,63.90
2019-03-23T19:59:56.192Z,63.70
2019-03-23T20:04:48.041Z,64.70
2019-03-23T20:09:39.270Z,64.70
2019-03-23T20:14:30.284Z,65.00
2019-03-23T20:19:21.204Z,64.70
2019-03-23T20:24:12.356Z,64.00
2019-03-23T20:29:04.010Z,64.00
2019-03-23T20:33:54.920Z,64.00
2019-03-23T20:38:46.579Z,64.90
2019-03-23T20:43:37.473Z,64.90
2019-03-23T20:48:29.123Z,64.50
2019-03-23T20:53:20.028Z,64.50
2019-03-23T20:58:10.937Z,63.60
2019-03-23T21:03:02.577Z,64.50
2019-03-23T21:07:54.251Z,64.70
2019-03-23T21:12:45.225Z,64.70
2019-03-23T21:17:36.863Z,65.10
2019-03-23T21:22:28.513Z,64.00
2019-03-23T21:27:19.421Z,64.00
2019-03-23T21:32:11.065Z,64.00
2019-03-23T21:37:02.780Z,64.40
2019-03-23T21:41:53.694Z,64.30
2019-03-23T21:46:44.584Z,64.60
2019-03-23T21:51:41.698Z,65.00
2019-03-23T21:56:34.431Z,63.70
2019-03-23T22:01:25.364Z,63.70
2019-03-23T22:06:16.279Z,63.90
2019-03-23T22:11:07.176Z,64.10
2019-03-23T22:15:58.078Z,64.50
2019-03-23T22:20:48.982Z,64.80
2019-03-23T22:25:39.895Z,64.90
2019-03-23T22:30:31.095Z,64.40
2019-03-23T22:35:22.742Z,63.70
2019-03-23T22:40:14.391Z,63.90
2019-03-23T22:45:06.281Z,63.90
2019-03-23T22:49:57.188Z,65.20
2019-03-23T22:54:48.119Z,65.50
2019-03-23T22:59:39.021Z,65.90
2019-03-23T23:04:29.931Z,63.90
2019-03-23T23:09:20.901Z,63.40
2019-03-23T23:14:12.554Z,65.00
2019-03-23T23:19:03.449Z,64.90
2019-03-23T23:24:09.411Z,65.30
2019-03-23T23:29:00.322Z,65.50
2019-03-23T23:33:51.236Z,65.90
2019-03-23T23:38:42.893Z,65.00
2019-03-23T23:43:34.559Z,65.30
2019-03-23T23:48:25.449Z,64.60
2019-03-23T23:53:17.222Z,65.20
2019-03-23T23:58:08.121Z,65.20
